Time;durP1;ratioP1;P1;durP2;ratioP2;P2;SDS_P1;SDS_P2;PMS_P1;PMS_P2;Temp;Humidity;BMP_temperature;BMP_pressure;BME280_temperature;BME280_humidity;BME280_pressure;Samples;Min_cycle;Max_cycle;Signal;HPM_P1;HPM_P2
2021/01/19 00:01:59;;;;;;;16.45;11.30;;;7.20;93.50;;;;;;4897669;29;20025;-70
2021/01/19 00:04:24;;;;;;;14.80;10.73;;;7.20;93.40;;;;;;4896609;29;20116;-70
2021/01/19 00:06:50;;;;;;;15.27;10.68;;;7.20;93.40;;;;;;4897613;29;20492;-73
2021/01/19 00:09:15;;;;;;;12.70;9.40;;;7.20;93.40;;;;;;4896338;29;20135;-71
2021/01/19 00:11:41;;;;;;;28.65;13.43;;;7.20;93.40;;;;;;4897665;29;20083;-69
2021/01/19 00:14:06;;;;;;;17.88;12.63;;;7.20;93.40;;;;;;4896614;29;20500;-69
2021/01/19 00:16:32;;;;;;;17.60;12.68;;;7.20;93.40;;;;;;4896818;29;20061;-71
2021/01/19 00:18:58;;;;;;;18.50;13.00;;;7.20;93.40;;;;;;4897184;29;20032;-68
2021/01/19 00:21:23;;;;;;;18.88;12.38;;;7.20;93.30;;;;;;4896920;29;20041;-70
2021/01/19 00:23:49;;;;;;;24.85;16.17;;;7.20;93.30;;;;;;4900993;29;20032;-66
2021/01/19 00:26:14;;;;;;;19.83;13.77;;;7.20;93.30;;;;;;4895844;29;20043;-73
2021/01/19 00:28:40;;;;;;;21.65;12.13;;;7.20;93.30;;;;;;4895998;29;20043;-70
2021/01/19 00:31:07;;;;;;;15.13;10.57;;;7.20;93.30;;;;;;4894992;29;20092;-67
2021/01/19 00:33:32;;;;;;;20.38;11.93;;;7.10;93.30;;;;;;4896878;29;20060;-69
2021/01/19 00:35:58;;;;;;;21.13;11.15;;;7.10;93.30;;;;;;4896734;29;20021;-72
2021/01/19 00:38:23;;;;;;;17.17;9.32;;;7.10;93.30;;;;;;4895684;29;20080;-72
2021/01/19 00:40:49;;;;;;;12.63;7.95;;;7.10;93.30;;;;;;4896874;29;20099;-68
2021/01/19 00:43:14;;;;;;;14.38;9.70;;;7.00;93.10;;;;;;4896269;29;20111;-76
2021/01/19 00:45:40;;;;;;;38.92;22.33;;;7.00;93.20;;;;;;4896497;29;20024;-76
2021/01/19 00:48:06;;;;;;;27.13;15.32;;;7.00;93.20;;;;;;4896358;29;20041;-72
2021/01/19 00:50:32;;;;;;;34.72;20.73;;;7.00;93.20;;;;;;4896886;29;20466;-75
2021/01/19 00:52:57;;;;;;;40.50;22.83;;;7.10;93.20;;;;;;4896217;29;20100;-75
2021/01/19 00:55:23;;;;;;;52.80;30.75;;;7.10;93.00;;;;;;4896494;29;20120;-77
2021/01/19 00:57:48;;;;;;;29.75;14.38;;;7.10;93.00;;;;;;4897064;29;20100;-68
2021/01/19 01:00:15;;;;;;;56.08;30.98;;;7.00;92.90;;;;;;4895620;29;20036;-70
2021/01/19 01:02:40;;;;;;;58.90;33.53;;;7.00;93.00;;;;;;4896869;29;20020;-69
2021/01/19 01:05:08;;;;;;;40.70;23.40;;;7.00;93.00;;;;;;4896355;29;20043;-70
2021/01/19 01:07:38;;;;;;;19.13;12.98;;;7.00;92.90;;;;;;4896119;29;20025;-70
2021/01/19 01:10:09;;;;;;;23.75;12.63;;;7.00;92.90;;;;;;4896326;29;20029;-66
2021/01/19 01:12:34;;;;;;;18.08;10.00;;;7.00;92.80;;;;;;4896242;29;20044;-70
2021/01/19 01:15:01;;;;;;;15.57;8.52;;;7.00;92.80;;;;;;4896608;29;20499;-71
2021/01/19 01:17:26;;;;;;;37.88;21.75;;;7.00;92.90;;;;;;4896368;29;20040;-68
2021/01/19 01:19:52;;;;;;;25.10;13.38;;;7.00;92.90;;;;;;4895975;29;20020;-67
2021/01/19 01:22:17;;;;;;;29.15;14.30;;;7.10;92.70;;;;;;4896352;29;20048;-68
2021/01/19 01:24:43;;;;;;;76.40;38.70;;;7.00;92.70;;;;;;4896742;29;20553;-70
2021/01/19 01:27:09;;;;;;;30.58;16.17;;;7.00;92.50;;;;;;4898751;29;20109;-69
2021/01/19 01:29:34;;;;;;;28.65;14.45;;;7.00;92.50;;;;;;4900380;29;20541;-71
2021/01/19 01:32:00;;;;;;;25.20;11.90;;;7.00;92.40;;;;;;4900307;29;20052;-69
2021/01/19 01:34:26;;;;;;;41.05;22.85;;;7.00;92.40;;;;;;4882375;29;20036;-71
2021/01/19 01:36:51;;;;;;;84.80;54.38;;;6.90;92.40;;;;;;4900396;29;20024;-70
2021/01/19 01:39:17;;;;;;;37.03;21.70;;;6.90;92.40;;;;;;4899626;29;20444;-68
2021/01/19 01:41:42;;;;;;;25.85;13.50;;;6.90;92.40;;;;;;4899773;29;20430;-72
2021/01/19 01:44:08;;;;;;;18.75;11.40;;;6.90;92.30;;;;;;4899664;29;20044;-70
2021/01/19 01:46:35;;;;;;;18.38;9.90;;;6.90;92.40;;;;;;4900323;29;20028;-74
2021/01/19 01:49:02;;;;;;;16.52;6.72;;;6.90;92.30;;;;;;4899129;29;20105;-71
2021/01/19 01:51:28;;;;;;;15.23;6.68;;;6.90;92.30;;;;;;4899736;29;20032;-73
2021/01/19 01:53:55;;;;;;;14.82;8.10;;;6.80;92.50;;;;;;4883120;29;20481;-74
2021/01/19 01:56:21;;;;;;;13.93;4.85;;;6.90;92.20;;;;;;4882038;29;20035;-72
2021/01/19 01:58:47;;;;;;;14.23;5.40;;;6.80;92.20;;;;;;4899839;29;20025;-73
2021/01/19 02:01:13;;;;;;;24.33;11.00;;;6.80;92.10;;;;;;4899498;29;20132;-71
2021/01/19 02:03:38;;;;;;;24.85;8.30;;;6.70;92.00;;;;;;4899198;29;20055;-71
2021/01/19 02:06:05;;;;;;;34.17;14.77;;;6.70;92.10;;;;;;4899461;29;20033;-74
2021/01/19 02:08:59;;;;;;;19.17;9.02;;;6.70;92.20;;;;;;4899698;29;20035;-72
2021/01/19 02:11:47;;;;;;;21.13;8.48;;;6.70;92.20;;;;;;4899193;29;20028;-68
2021/01/19 02:14:34;;;;;;;40.17;17.55;;;6.60;92.20;;;;;;4899207;29;20029;-68
2021/01/19 02:17:18;;;;;;;45.72;20.73;;;6.60;92.30;;;;;;4882002;29;20433;-69
2021/01/19 02:20:17;;;;;;;27.55;14.00;;;6.60;92.30;;;;;;4899628;29;20042;-67
2021/01/19 02:23:07;;;;;;;74.30;35.38;;;6.60;92.20;;;;;;4899845;29;20103;-71
2021/01/19 02:26:09;;;;;;;51.83;24.13;;;6.60;92.00;;;;;;4899496;29;20441;-70
2021/01/19 02:28:42;;;;;;;49.00;20.40;;;6.60;91.80;;;;;;4899408;29;20024;-72
2021/01/19 02:31:28;;;;;;;23.70;10.57;;;6.60;91.80;;;;;;4898366;29;20027;-66
2021/01/19 02:34:17;;;;;;;20.70;7.68;;;6.60;91.90;;;;;;4899353;29;20035;-70
2021/01/19 02:37:03;;;;;;;15.82;6.80;;;6.60;91.80;;;;;;4899148;29;20358;-71
2021/01/19 02:39:38;;;;;;;21.77;8.38;;;6.70;91.80;;;;;;4899068;29;20030;-71
2021/01/19 02:42:07;;;;;;;12.13;5.45;;;6.70;91.60;;;;;;4898798;29;20055;-68
2021/01/19 02:44:37;;;;;;;14.10;4.85;;;6.70;91.40;;;;;;4898510;29;20073;-66
2021/01/19 02:47:04;;;;;;;15.43;6.60;;;6.70;91.40;;;;;;4899172;29;20092;-68
2021/01/19 02:49:30;;;;;;;14.23;4.90;;;6.60;91.30;;;;;;4898717;29;20056;-70
2021/01/19 02:51:57;;;;;;;11.90;3.50;;;6.70;91.40;;;;;;4898424;29;20025;-68
2021/01/19 02:54:23;;;;;;;18.00;6.30;;;6.70;91.40;;;;;;4898635;29;20108;-71
2021/01/19 02:57:20;;;;;;;14.73;4.18;;;6.70;91.30;;;;;;4882076;29;20029;-73
2021/01/19 03:00:04;;;;;;;16.90;4.10;;;6.70;91.30;;;;;;4898052;29;20036;-67
2021/01/19 03:02:33;;;;;;;11.63;3.70;;;6.80;91.30;;;;;;4899128;29;20084;-71
2021/01/19 03:05:00;;;;;;;9.80;3.10;;;6.70;91.10;;;;;;4898263;29;20096;-67
2021/01/19 03:07:30;;;;;;;12.57;3.03;;;6.70;91.30;;;;;;4898357;29;20111;-71
2021/01/19 03:10:00;;;;;;;15.55;3.53;;;6.70;91.30;;;;;;4898502;29;20025;-71
2021/01/19 03:12:26;;;;;;;16.40;4.80;;;6.70;91.20;;;;;;4897719;29;20033;-70
2021/01/19 03:14:53;;;;;;;10.65;3.75;;;6.60;91.30;;;;;;4898612;29;20052;-68
2021/01/19 03:17:19;;;;;;;10.60;3.65;;;6.60;91.20;;;;;;4898266;29;20025;-71
2021/01/19 03:19:47;;;;;;;12.77;5.18;;;6.50;91.30;;;;;;4897871;29;20430;-70
2021/01/19 03:22:13;;;;;;;14.60;4.25;;;6.50;91.20;;;;;;4897986;29;20063;-71
2021/01/19 03:24:39;;;;;;;14.95;5.53;;;6.50;91.30;;;;;;4898426;29;20116;-66
2021/01/19 03:27:06;;;;;;;15.95;4.97;;;6.50;91.40;;;;;;4897247;29;20099;-66
2021/01/19 03:29:31;;;;;;;12.60;4.28;;;6.50;91.50;;;;;;4898267;29;20382;-70
2021/01/19 03:31:57;;;;;;;12.07;3.97;;;6.50;91.60;;;;;;4898201;29;20028;-67
2021/01/19 03:34:23;;;;;;;11.38;3.95;;;6.50;91.70;;;;;;4897333;29;20440;-71
2021/01/19 03:36:48;;;;;;;14.93;4.40;;;6.50;91.80;;;;;;4898311;29;20482;-72
2021/01/19 03:39:14;;;;;;;17.63;5.78;;;6.50;91.80;;;;;;4880694;29;20149;-72
2021/01/19 03:41:40;;;;;;;10.98;4.15;;;6.40;91.90;;;;;;4897477;29;20021;-72
2021/01/19 03:44:06;;;;;;;11.75;4.32;;;6.50;92.00;;;;;;4897541;29;20045;-70
2021/01/19 03:46:31;;;;;;;16.20;4.93;;;6.40;92.10;;;;;;4898035;29;20040;-70
2021/01/19 03:48:58;;;;;;;10.27;4.18;;;6.40;92.10;;;;;;4896438;29;20498;-70
2021/01/19 03:51:24;;;;;;;12.50;4.45;;;6.40;92.20;;;;;;4897561;29;20588;-72
2021/01/19 03:53:50;;;;;;;10.07;4.25;;;6.30;92.30;;;;;;4898193;29;20064;-70
2021/01/19 03:56:16;;;;;;;8.07;4.50;;;6.30;92.40;;;;;;4896645;29;20492;-73
2021/01/19 03:58:42;;;;;;;8.50;4.32;;;6.30;92.50;;;;;;4897834;29;20029;-75
2021/01/19 04:01:07;;;;;;;12.23;5.03;;;6.20;92.60;;;;;;4897483;29;20021;-71
2021/01/19 04:03:33;;;;;;;15.10;5.15;;;6.20;92.70;;;;;;4897225;29;20036;-73
2021/01/19 04:05:58;;;;;;;14.10;5.32;;;6.20;92.80;;;;;;4897650;29;20033;-71
2021/01/19 04:08:24;;;;;;;14.60;6.20;;;6.20;92.90;;;;;;4896663;29;20063;-68
2021/01/19 04:10:49;;;;;;;14.30;5.22;;;6.20;93.00;;;;;;4897714;29;20112;-72
2021/01/19 04:13:18;;;;;;;16.98;5.20;;;6.20;93.10;;;;;;4896965;29;20051;-68
2021/01/19 04:15:45;;;;;;;15.57;5.75;;;6.20;93.20;;;;;;4897046;29;20116;-68
2021/01/19 04:18:10;;;;;;;13.10;5.15;;;6.20;93.30;;;;;;4897137;29;20024;-71
2021/01/19 04:20:36;;;;;;;12.48;5.38;;;6.20;93.40;;;;;;4897624;29;20106;-68
2021/01/19 04:23:02;;;;;;;15.18;5.40;;;6.10;93.50;;;;;;4896685;29;20035;-72
2021/01/19 04:25:27;;;;;;;8.73;4.93;;;6.10;93.60;;;;;;4897009;29;20031;-69
2021/01/19 04:27:53;;;;;;;11.77;5.07;;;6.10;93.70;;;;;;4897096;29;20276;-71
2021/01/19 04:30:19;;;;;;;10.73;5.85;;;6.10;93.80;;;;;;4896199;29;20454;-68
2021/01/19 04:32:48;;;;;;;11.38;5.53;;;6.10;93.80;;;;;;4897367;29;20037;-67
2021/01/19 04:35:14;;;;;;;8.55;4.93;;;6.10;94.00;;;;;;4896738;29;20056;-68
2021/01/19 04:37:40;;;;;;;11.82;5.22;;;6.10;94.10;;;;;;4896692;29;20024;-72
2021/01/19 04:40:06;;;;;;;18.23;6.32;;;6.10;94.10;;;;;;4896571;29;20068;-69
2021/01/19 04:42:33;;;;;;;14.32;5.45;;;6.10;94.20;;;;;;4897254;29;20176;-72
2021/01/19 04:45:01;;;;;;;14.52;5.22;;;6.10;94.20;;;;;;4896375;29;20044;-69
2021/01/19 04:47:28;;;;;;;10.07;4.93;;;6.10;94.30;;;;;;4896484;29;20053;-75
2021/01/19 04:49:54;;;;;;;12.27;5.35;;;6.10;94.30;;;;;;4896886;29;20449;-70
2021/01/19 04:52:22;;;;;;;11.60;5.05;;;6.10;94.30;;;;;;4896057;29;20048;-72
2021/01/19 04:55:06;;;;;;;12.38;5.35;;;6.10;94.30;;;;;;4896960;29;20057;-71
2021/01/19 04:57:34;;;;;;;8.93;5.10;;;6.10;94.40;;;;;;4896367;29;20557;-70
2021/01/19 05:00:13;;;;;;;14.18;5.95;;;6.20;94.40;;;;;;4896172;29;20371;-70
2021/01/19 05:02:59;;;;;;;10.82;4.65;;;6.10;94.40;;;;;;4897030;29;20456;-69
2021/01/19 05:05:37;;;;;;;11.93;4.95;;;6.10;94.50;;;;;;4895829;29;20188;-71
2021/01/19 05:08:02;;;;;;;13.55;5.25;;;6.10;94.60;;;;;;4896742;29;20470;-73
2021/01/19 05:10:38;;;;;;;10.32;5.30;;;6.10;94.60;;;;;;4896989;29;20032;-68
2021/01/19 05:13:11;;;;;;;10.43;4.65;;;6.10;94.60;;;;;;4897706;29;20123;-70
2021/01/19 05:15:43;;;;;;;10.00;4.90;;;6.10;94.70;;;;;;4898440;29;20024;-75
2021/01/19 05:18:09;;;;;;;;;;;6.10;94.80;;;;;;4898928;29;20382;-71
2021/01/19 05:20:50;;;;;;;11.07;4.70;;;6.20;94.90;;;;;;4897441;29;19911;-70
2021/01/19 05:23:23;;;;;;;8.55;4.53;;;6.20;94.80;;;;;;4897367;29;20496;-69
2021/01/19 05:25:56;;;;;;;8.20;4.40;;;6.20;94.80;;;;;;4897181;29;20017;-67
2021/01/19 05:28:39;;;;;;;12.18;4.57;;;6.20;94.90;;;;;;4883778;29;20025;-69
2021/01/19 05:31:21;;;;;;;6.50;3.83;;;6.10;94.90;;;;;;4897558;29;20482;-70
2021/01/19 05:33:53;;;;;;;8.02;4.50;;;6.10;95.00;;;;;;4897192;29;20028;-68
2021/01/19 05:36:20;;;;;;;9.32;4.30;;;6.10;95.10;;;;;;4897175;29;20037;-73
2021/01/19 05:38:47;;;;;;;8.45;4.03;;;6.20;95.10;;;;;;4895321;29;20028;-67
2021/01/19 05:41:28;;;;;;;6.88;3.65;;;6.10;95.10;;;;;;4895639;29;20044;-74
2021/01/19 05:43:54;;;;;;;5.88;3.65;;;6.10;95.20;;;;;;4896319;29;20036;-70
2021/01/19 05:46:28;;;;;;;6.68;3.50;;;6.10;95.20;;;;;;4896069;29;20028;-73
2021/01/19 05:49:02;;;;;;;6.15;3.88;;;6.20;95.30;;;;;;4895002;29;20053;-71
2021/01/19 05:51:30;;;;;;;6.22;3.58;;;6.20;95.30;;;;;;4895764;29;20032;-72
2021/01/19 05:53:59;;;;;;;6.30;3.38;;;6.10;95.30;;;;;;4896857;29;20025;-68
2021/01/19 05:56:27;;;;;;;6.35;3.40;;;6.20;95.30;;;;;;4894624;29;20040;-72
2021/01/19 05:58:53;;;;;;;5.68;3.45;;;6.20;95.40;;;;;;4896139;29;20028;-70
2021/01/19 06:01:32;;;;;;;7.00;3.80;;;6.20;95.40;;;;;;4895505;29;20029;-73
2021/01/19 06:04:04;;;;;;;6.07;3.72;;;6.20;95.40;;;;;;4880264;29;20047;-73
2021/01/19 06:06:30;;;;;;;7.68;3.28;;;6.20;95.40;;;;;;4897017;29;20377;-72
2021/01/19 06:09:05;;;;;;;6.85;3.42;;;6.30;95.50;;;;;;4896476;29;20048;-72
2021/01/19 06:11:31;;;;;;;6.80;3.13;;;6.20;95.40;;;;;;4910118;29;20032;-71
2021/01/19 06:13:57;;;;;;;5.13;3.22;;;6.20;95.50;;;;;;4892300;29;20039;-70
2021/01/19 06:16:24;;;;;;;5.43;4.00;;;6.20;95.50;;;;;;4899383;29;20481;-73
2021/01/19 06:18:51;;;;;;;6.47;3.30;;;6.30;95.60;;;;;;4900458;29;20486;-72
2021/01/19 06:21:27;;;;;;;4.28;3.15;;;6.30;95.60;;;;;;4911898;29;20040;-71
2021/01/19 06:23:53;;;;;;;4.63;3.55;;;6.30;95.60;;;;;;4899949;29;20140;-74
2021/01/19 06:26:18;;;;;;;6.25;2.80;;;6.40;95.60;;;;;;4918979;29;20504;-70
2021/01/19 06:28:44;;;;;;;4.07;2.97;;;6.40;95.60;;;;;;4897700;29;20028;-68
2021/01/19 06:31:14;;;;;;;3.30;2.70;;;6.40;95.60;;;;;;4883895;29;20037;-72
2021/01/19 06:33:41;;;;;;;3.40;2.60;;;6.40;95.60;;;;;;4907732;29;20028;-72
2021/01/19 06:36:08;;;;;;;5.72;2.95;;;6.50;95.60;;;;;;4918484;29;20111;-70
2021/01/19 06:38:34;;;;;;;3.20;2.90;;;6.50;95.60;;;;;;4918759;29;20088;-73
2021/01/19 06:41:01;;;;;;;4.72;2.75;;;6.50;95.70;;;;;;4917368;29;20508;-71
2021/01/19 06:43:35;;;;;;;3.92;2.80;;;6.50;95.70;;;;;;4918214;29;20533;-75
2021/01/19 06:46:07;;;;;;;4.43;2.65;;;6.60;95.60;;;;;;4919162;29;20470;-72
2021/01/19 06:48:33;;;;;;;;;;;6.60;95.60;;;;;;4918915;29;20063;-75
2021/01/19 06:51:02;;;;;;;4.15;2.80;;;6.70;95.60;;;;;;4918198;29;19914;-72
2021/01/19 06:53:36;;;;;;;4.25;2.45;;;6.80;95.50;;;;;;4894253;29;20080;-68
2021/01/19 06:56:14;;;;;;;90.55;7.18;;;6.90;95.40;;;;;;4897618;29;20092;-69
2021/01/19 06:58:51;;;;;;;46.25;4.45;;;6.90;95.30;;;;;;4877713;29;20039;-70
2021/01/19 07:01:29;;;;;;;10.60;2.90;;;6.90;95.30;;;;;;4911917;29;20052;-71
2021/01/19 07:04:12;;;;;;;56.05;5.30;;;7.00;95.20;;;;;;4900986;29;20496;-74
2021/01/19 07:07:12;;;;;;;45.78;4.78;;;7.00;95.20;;;;;;4899247;29;20115;-75
2021/01/19 07:10:15;;;;;;;32.15;3.80;;;7.00;95.20;;;;;;4899063;29;20071;-74
2021/01/19 07:13:03;;;;;;;139.35;10.23;;;7.10;95.20;;;;;;4869908;29;20525;-75
2021/01/19 07:16:03;;;;;;;4.10;2.25;;;7.10;95.20;;;;;;4898934;29;20085;-76
2021/01/19 07:18:45;;;;;;;4.97;2.80;;;7.10;95.20;;;;;;4881240;29;20069;-74
2021/01/19 07:21:11;;;;;;;6.13;2.33;;;7.10;95.20;;;;;;4900128;29;20044;-78
2021/01/19 07:23:47;;;;;;;6.53;2.25;;;7.10;95.10;;;;;;4901260;29;20036;-75
2021/01/19 07:26:30;;;;;;;4.20;2.28;;;7.20;95.20;;;;;;4898347;29;20031;-78
2021/01/19 07:28:56;;;;;;;2.67;2.25;;;7.20;95.10;;;;;;4899091;29;20024;-70
2021/01/19 07:31:21;;;;;;;5.22;2.63;;;7.20;95.20;;;;;;4898903;29;20065;-77
2021/01/19 07:33:53;;;;;;;5.50;2.85;;;7.30;95.10;;;;;;4898433;29;20029;-78
2021/01/19 07:36:20;;;;;;;;;;;7.20;95.00;;;;;;4905259;29;20032;-72
2021/01/19 07:38:46;;;;;;;2.25;2.05;;;7.20;95.10;;;;;;4903337;29;20343;-81
2021/01/19 07:41:11;;;;;;;3.70;2.30;;;7.20;95.30;;;;;;4898525;29;20031;-79
2021/01/19 07:43:39;;;;;;;2.72;2.30;;;7.20;95.00;;;;;;4898621;29;20048;-78
2021/01/19 07:46:05;;;;;;;3.45;2.10;;;7.20;95.00;;;;;;4882331;29;20024;-80
2021/01/19 07:48:32;;;;;;;3.10;2.00;;;7.30;95.10;;;;;;4898037;29;20096;-77
2021/01/19 07:51:11;;;;;;;3.45;2.15;;;7.30;95.10;;;;;;4898956;29;20024;-75
2021/01/19 07:53:55;;;;;;;2.30;1.88;;;7.30;95.00;;;;;;4898083;29;20029;-78
2021/01/19 07:56:24;;;;;;;3.13;2.30;;;7.20;95.10;;;;;;4898655;29;20025;-77
2021/01/19 07:58:50;;;;;;;2.95;2.13;;;7.30;95.20;;;;;;4898725;29;20035;-78
2021/01/19 08:01:27;;;;;;;2.58;1.77;;;7.30;95.20;;;;;;4898128;29;20442;-79
2021/01/19 08:03:54;;;;;;;3.28;2.10;;;7.30;95.10;;;;;;4898573;29;20032;-78
2021/01/19 08:06:32;;;;;;;4.78;2.03;;;7.30;95.20;;;;;;4898257;29;20457;-77
2021/01/19 08:09:14;;;;;;;2.53;1.80;;;7.30;95.20;;;;;;4898074;29;20025;-76
2021/01/19 08:11:41;;;;;;;2.35;1.80;;;7.40;95.20;;;;;;4881511;29;20020;-77
2021/01/19 08:14:07;;;;;;;3.70;2.03;;;7.40;95.20;;;;;;4881697;29;20477;-75
2021/01/19 08:16:36;;;;;;;2.60;2.00;;;7.40;95.30;;;;;;4897480;29;20028;-79
2021/01/19 08:19:13;;;;;;;4.72;2.15;;;7.40;95.20;;;;;;4898430;29;20028;-76
2021/01/19 08:21:49;;;;;;;2.20;2.00;;;7.40;95.30;;;;;;4880630;29;20021;-76
2021/01/19 08:24:15;;;;;;;6.90;1.90;;;7.40;95.40;;;;;;4881633;29;20430;-80
2021/01/19 08:26:43;;;;;;;4.45;1.90;;;7.40;95.40;;;;;;4898134;29;20035;-80
2021/01/19 08:29:09;;;;;;;3.05;2.35;;;7.40;95.40;;;;;;4897448;29;20473;-77
2021/01/19 08:31:37;;;;;;;3.45;2.17;;;7.40;95.40;;;;;;4881245;29;20021;-76
2021/01/19 08:34:05;;;;;;;4.32;1.80;;;7.50;95.50;;;;;;4898033;29;20457;-77
2021/01/19 08:36:32;;;;;;;2.20;1.67;;;7.40;95.50;;;;;;4897479;29;20025;-76
2021/01/19 08:39:00;;;;;;;1.92;1.73;;;7.50;95.60;;;;;;4897960;29;20531;-81
2021/01/19 08:41:26;;;;;;;2.83;1.50;;;7.50;95.60;;;;;;4897663;29;20025;-75
2021/01/19 08:43:57;;;;;;;4.90;2.38;;;7.50;95.60;;;;;;4897345;29;20040;-79
2021/01/19 08:46:23;;;;;;;2.42;1.80;;;7.50;95.60;;;;;;4897938;29;20028;-80
2021/01/19 08:48:50;;;;;;;2.10;1.77;;;7.50;95.70;;;;;;4897862;29;20393;-78
2021/01/19 08:51:20;;;;;;;3.40;1.90;;;7.50;95.70;;;;;;4897473;29;20098;-77
2021/01/19 08:53:46;;;;;;;3.80;1.60;;;7.60;95.70;;;;;;4898027;29;20119;-77
2021/01/19 08:56:20;;;;;;;4.18;1.80;;;7.60;95.70;;;;;;4897925;29;20028;-78
2021/01/19 08:58:47;;;;;;;3.95;1.95;;;7.60;95.70;;;;;;4880359;29;20028;-80
2021/01/19 09:01:13;;;;;;;2.60;1.88;;;7.60;95.80;;;;;;4897818;29;20486;-78
2021/01/19 09:03:39;;;;;;;2.22;1.65;;;7.60;95.80;;;;;;4880416;29;20033;-77
2021/01/19 09:06:06;;;;;;;2.72;1.90;;;7.70;95.80;;;;;;4897573;29;20119;-81
2021/01/19 09:08:32;;;;;;;2.00;1.77;;;7.70;95.80;;;;;;4897594;29;20029;-76
2021/01/19 09:11:02;;;;;;;2.20;1.60;;;7.70;95.70;;;;;;4880285;29;20031;-78
2021/01/19 09:13:31;;;;;;;1.90;1.75;;;7.70;95.80;;;;;;4897428;29;20100;-78
2021/01/19 09:15:56;;;;;;;2.28;1.90;;;7.70;95.90;;;;;;4897756;29;20025;-78
2021/01/19 09:18:24;;;;;;;2.75;2.10;;;7.70;95.90;;;;;;4896789;29;20144;-79
2021/01/19 09:21:10;;;;;;;2.95;2.63;;;7.80;96.00;;;;;;4897786;29;20482;-78
2021/01/19 09:23:36;;;;;;;4.55;2.33;;;7.80;96.00;;;;;;4880845;29;20036;-77
2021/01/19 09:26:08;;;;;;;3.45;1.80;;;7.80;96.00;;;;;;4880226;29;20429;-84
2021/01/19 09:28:36;;;;;;;1.92;1.70;;;7.80;96.00;;;;;;4897220;29;20021;-77
2021/01/19 09:31:18;;;;;;;2.28;2.00;;;7.80;96.00;;;;;;4880802;29;20044;-74
2021/01/19 09:33:46;;;;;;;4.25;2.30;;;7.80;96.10;;;;;;4897279;29;20064;-75
2021/01/19 09:36:13;;;;;;;2.88;1.90;;;7.80;96.10;;;;;;4880917;29;20020;-76
2021/01/19 09:38:39;;;;;;;3.08;1.90;;;7.90;96.10;;;;;;4897111;29;20477;-74
2021/01/19 09:41:06;;;;;;;4.63;2.00;;;7.90;96.10;;;;;;4896750;29;20025;-75
2021/01/19 09:43:32;;;;;;;4.65;1.90;;;7.90;96.10;;;;;;4897230;29;20104;-76
2021/01/19 09:46:01;;;;;;;4.22;1.80;;;7.90;96.10;;;;;;4896813;29;20036;-77
2021/01/19 09:48:32;;;;;;;2.20;1.50;;;7.90;96.10;;;;;;4883629;29;20067;-78
2021/01/19 09:51:08;;;;;;;3.73;1.77;;;8.00;96.20;;;;;;4900951;29;20036;-77
2021/01/19 09:53:34;;;;;;;3.35;1.63;;;8.00;96.20;;;;;;4883332;29;20029;-75
2021/01/19 09:56:00;;;;;;;1.95;1.60;;;8.00;96.20;;;;;;4901041;29;20039;-76
2021/01/19 09:58:27;;;;;;;3.35;1.73;;;8.00;96.20;;;;;;4883755;29;20021;-73
2021/01/19 10:00:53;;;;;;;1.80;1.70;;;8.00;96.30;;;;;;4900254;29;20083;-78
2021/01/19 10:03:25;;;;;;;2.45;1.80;;;8.10;96.30;;;;;;4900436;29;20025;-81
2021/01/19 10:06:08;;;;;;;2.95;1.92;;;8.10;96.30;;;;;;4900861;29;20032;-80
2021/01/19 10:08:37;;;;;;;2.75;1.92;;;8.20;96.30;;;;;;4899907;29;20032;-78
2021/01/19 10:11:03;;;;;;;2.53;1.98;;;8.20;96.30;;;;;;4900823;29;20031;-78
2021/01/19 10:13:31;;;;;;;2.40;1.90;;;8.20;96.30;;;;;;4900377;29;20032;-78
2021/01/19 10:16:08;;;;;;;3.45;2.10;;;8.30;96.30;;;;;;4900219;29;20397;-80
2021/01/19 10:18:34;;;;;;;2.90;2.17;;;8.30;96.40;;;;;;4900461;29;20112;-80
2021/01/19 10:21:00;;;;;;;2.78;2.20;;;8.30;96.40;;;;;;4883856;29;20120;-80
2021/01/19 10:23:30;;;;;;;3.05;2.45;;;8.30;96.40;;;;;;4883139;29;20037;-78
2021/01/19 10:26:10;;;;;;;3.25;2.15;;;8.40;96.40;;;;;;4900353;29;20044;-77
2021/01/19 10:28:43;;;;;;;2.60;2.40;;;8.40;96.40;;;;;;4882528;29;20508;-75
2021/01/19 10:31:20;;;;;;;2.33;2.13;;;8.40;96.50;;;;;;4900237;29;20055;-77
2021/01/19 10:34:08;;;;;;;3.05;2.20;;;8.40;96.60;;;;;;4900309;29;20029;-75
2021/01/19 10:36:37;;;;;;;2.40;2.20;;;8.50;96.60;;;;;;4899289;29;20028;-77
2021/01/19 10:39:09;;;;;;;2.40;2.20;;;8.50;96.70;;;;;;4883432;29;20506;-78
2021/01/19 10:41:36;;;;;;;3.97;2.80;;;8.50;96.70;;;;;;4900067;29;20025;-77
2021/01/19 10:44:02;;;;;;;2.58;2.38;;;8.60;96.80;;;;;;4899373;29;20028;-78
2021/01/19 10:46:31;;;;;;;53.45;4.75;;;8.60;96.80;;;;;;4899679;29;20382;-79
2021/01/19 10:49:08;;;;;;;3.90;3.05;;;8.70;96.80;;;;;;4899741;29;20055;-76
2021/01/19 10:51:35;;;;;;;2.67;2.45;;;8.70;96.80;;;;;;4882411;29;20028;-76
2021/01/19 10:54:14;;;;;;;2.85;2.40;;;8.80;97.10;;;;;;4899899;29;20024;-76
2021/01/19 10:56:43;;;;;;;8.35;2.63;;;8.90;96.80;;;;;;4898891;29;20025;-76
2021/01/19 10:59:09;;;;;;;2.70;2.50;;;8.90;96.80;;;;;;4883111;29;20548;-75
2021/01/19 11:01:36;;;;;;;6.72;2.63;;;8.90;96.80;;;;;;4899520;29;20161;-78
2021/01/19 11:04:03;;;;;;;23.25;2.95;;;9.00;96.90;;;;;;4899012;29;20044;-77
2021/01/19 11:06:38;;;;;;;2.65;2.25;;;9.00;96.90;;;;;;4899473;29;20029;-76
2021/01/19 11:09:07;;;;;;;7.03;2.45;;;9.10;97.00;;;;;;4899614;29;20108;-78
2021/01/19 11:11:36;;;;;;;6.95;2.90;;;9.10;97.10;;;;;;4882088;29;20109;-75
2021/01/19 11:14:07;;;;;;;2.63;2.30;;;9.10;97.20;;;;;;4899462;29;20088;-75
2021/01/19 11:16:43;;;;;;;2.20;2.08;;;9.20;97.20;;;;;;4882520;29;20036;-76
2021/01/19 11:19:11;;;;;;;2.63;2.05;;;9.30;97.60;;;;;;4882277;29;20525;-75
2021/01/19 11:21:38;;;;;;;4.57;2.20;;;9.40;97.30;;;;;;4898990;29;20028;-76
2021/01/19 11:24:06;;;;;;;3.75;2.30;;;9.40;97.30;;;;;;4899446;29;20032;-77
2021/01/19 11:26:34;;;;;;;2.78;2.33;;;9.50;97.30;;;;;;4897132;29;20164;-76
2021/01/19 11:29:00;;;;;;;7.05;2.30;;;9.50;97.30;;;;;;4863668;29;20043;-78
2021/01/19 11:31:27;;;;;;;90.63;7.82;;;9.60;97.40;;;;;;4859920;29;20119;-76
2021/01/19 11:33:58;;;;;;;98.32;7.40;;;9.60;97.50;;;;;;4877249;29;20025;-78
2021/01/19 11:36:26;;;;;;;93.10;6.35;;;9.60;97.70;;;;;;4859596;29;20108;-76
2021/01/19 11:38:53;;;;;;;80.05;6.05;;;9.70;97.80;;;;;;4875206;29;20093;-83
2021/01/19 11:41:21;;;;;;;46.83;8.70;;;9.70;97.80;;;;;;4862657;29;20029;-72
2021/01/19 11:43:47;;;;;;;212.68;13.20;;;9.80;97.80;;;;;;4870500;29;20055;-74
2021/01/19 11:46:20;;;;;;;249.25;14.95;;;9.80;97.80;;;;;;4875134;29;20060;-76
2021/01/19 11:48:47;;;;;;;17.08;4.07;;;9.90;97.80;;;;;;4893735;29;20044;-73
2021/01/19 11:51:20;;;;;;;245.65;17.70;;;9.90;97.80;;;;;;4877562;29;20028;-73
2021/01/19 11:53:48;;;;;;;5.25;2.83;;;9.90;97.70;;;;;;4894685;29;20497;-75
2021/01/19 11:56:14;;;;;;;47.53;5.13;;;10.00;97.80;;;;;;4895174;29;20292;-73
2021/01/19 11:58:41;;;;;;;14.75;2.95;;;10.10;97.80;;;;;;4894472;29;20032;-75
2021/01/19 12:01:07;;;;;;;183.13;13.00;;;10.10;97.70;;;;;;4894277;29;20064;-70
2021/01/19 12:03:32;;;;;;;59.17;6.10;;;10.10;97.60;;;;;;4894476;29;20033;-75
2021/01/19 12:05:58;;;;;;;28.27;4.70;;;10.20;97.60;;;;;;4894199;29;20545;-73
2021/01/19 12:08:24;;;;;;;4.03;2.70;;;10.20;97.60;;;;;;4893675;29;20036;-75
2021/01/19 12:10:49;;;;;;;35.20;4.93;;;10.10;97.70;;;;;;4894772;29;20171;-74
2021/01/19 12:13:15;;;;;;;5.70;3.05;;;10.10;97.70;;;;;;4893791;29;20434;-76
2021/01/19 12:15:42;;;;;;;96.95;8.32;;;10.20;97.80;;;;;;4894068;29;20120;-77
2021/01/19 12:18:12;;;;;;;79.97;6.45;;;10.20;97.70;;;;;;4877960;29;20024;-74
2021/01/19 12:20:38;;;;;;;9.88;3.35;;;10.20;97.70;;;;;;4892442;29;20095;-71
2021/01/19 12:23:04;;;;;;;4.20;3.00;;;10.20;97.80;;;;;;4884522;29;20097;-78
2021/01/19 12:25:30;;;;;;;5.20;3.00;;;10.20;97.80;;;;;;4894484;29;20040;-77
2021/01/19 12:27:56;;;;;;;5.18;3.70;;;10.20;97.70;;;;;;4872910;29;20020;-73
2021/01/19 12:30:22;;;;;;;53.25;5.97;;;10.20;97.80;;;;;;4889744;29;20062;-73
2021/01/19 12:32:48;;;;;;;25.05;4.57;;;10.20;97.80;;;;;;4913619;29;20039;-78
2021/01/19 12:35:14;;;;;;;4.43;3.40;;;10.30;97.90;;;;;;4912402;29;20032;-72
2021/01/19 12:37:39;;;;;;;16.90;4.97;;;10.30;97.80;;;;;;4907502;29;20438;-73
2021/01/19 12:40:06;;;;;;;9.20;5.05;;;10.30;97.80;;;;;;4877365;29;20067;-73
2021/01/19 12:42:31;;;;;;;5.80;4.93;;;10.30;97.90;;;;;;4872937;29;20025;-73
2021/01/19 12:44:57;;;;;;;7.15;5.35;;;10.30;97.90;;;;;;4875464;29;20033;-74
2021/01/19 12:47:23;;;;;;;71.22;8.85;;;10.30;97.90;;;;;;4874955;29;20108;-74
2021/01/19 12:49:48;;;;;;;59.50;10.50;;;10.30;97.90;;;;;;4892133;29;20032;-73
2021/01/19 12:52:14;;;;;;;35.92;7.68;;;10.30;98.00;;;;;;4894588;29;20065;-74
2021/01/19 12:54:40;;;;;;;6.13;4.25;;;10.40;98.00;;;;;;4873026;29;20044;-71
2021/01/19 12:57:06;;;;;;;22.92;5.18;;;10.30;97.90;;;;;;4893660;29;20047;-74
2021/01/19 12:59:32;;;;;;;12.25;5.47;;;10.40;97.90;;;;;;4893068;29;20028;-76
2021/01/19 13:02:02;;;;;;;46.63;6.30;;;10.40;98.00;;;;;;4894245;29;20382;-75
2021/01/19 13:04:28;;;;;;;8.02;4.60;;;10.40;98.00;;;;;;4893277;29;20040;-69